Thursday, October 19, 2017, 5:09 AM MDT
Back to Local

KGLD, Goodland Renner Field

Location: Goodland, KS, United States Lat: 39.367
Local Time: 5:09 AM MDT (11:09 GMT) Lon: -101.7
Time Zone: US/Mountain Elev: 3654 ft

Show me the last for .
Show Decoded

2017-10-19 04:53 METAR KGLD 191053Z AUTO 00000KT 10SM CLR 03/01 A3007 RMK AO2 SLP161 T00330006
                 PNO $ =
2017-10-19 03:53 METAR KGLD 190953Z AUTO 19006KT 8SM CLR 08/02 A3007 RMK AO2 SLP152 T00780017 PNO
                 $ =
2017-10-19 02:53 METAR KGLD 190853Z AUTO 18004KT 10SM CLR 08/01 A3008 RMK AO2 SLP156 6////
                 T00780011 58007 PNO $ =
2017-10-19 01:53 METAR KGLD 190753Z AUTO 18006KT 7SM CLR 07/01 A3009 RMK AO2 SLP162 T00720011 PNO
                 $ =
2017-10-19 00:53 METAR KGLD 190653Z AUTO 17008KT 10SM CLR 07/01 A3010 RMK AO2 SLP165 T00670011
                 402830061 PNO $ =
2017-10-18 23:53 METAR KGLD 190553Z AUTO 16008KT 10SM CLR 07/01 A3011 RMK AO2 SLP167 6////
                 T00670011 10183 20067 58003 PNO $ =
2017-10-18 22:53 METAR KGLD 190453Z AUTO 13007KT 10SM CLR 08/02 A3011 RMK AO2 SLP169 T00780017
                 PNO $ =
2017-10-18 21:53 METAR KGLD 190353Z AUTO 11007KT 10SM CLR 08/01 A3011 RMK AO2 SLP177 T00780011
                 PNO $ =
2017-10-18 20:53 METAR KGLD 190253Z AUTO 09008KT 10SM CLR 09/01 A3012 RMK AO2 SLP184 6////
                 T00940011 51011 PNO $ =
2017-10-18 19:53 METAR KGLD 190153Z AUTO 07008KT 10SM CLR 12/01 A3011 RMK AO2 SLP185 T01170006
                 PNO $ =
2017-10-18 18:53 METAR KGLD 190053Z AUTO 08006KT 10SM CLR 11/01 A3010 RMK AO2 SLP179 T01110011
                 PNO $ =
2017-10-18 17:53 METAR KGLD 182353Z AUTO 08004KT 10SM CLR 18/00 A3008 RMK AO2 SLP164 6////
                 T01830000 10283 20183 52012 PNO $ =
2017-10-18 16:53 METAR KGLD 182253Z AUTO 07010KT 10SM CLR 24/M04 A3006 RMK AO2 SLP152 T02441039
                 PNO $ =
2017-10-18 15:53 METAR KGLD 182153Z AUTO 06012KT 10SM CLR 27/M08 A3005 RMK AO2 SLP146 T02671078
                 PNO $ =
2017-10-18 14:53 METAR KGLD 182053Z AUTO 36009KT 10SM CLR 28/M07 A3004 RMK AO2 SLP136 6////
                 T02781067 56008 PNO $ =
2017-10-18 13:53 METAR KGLD 181953Z AUTO 34011KT 10SM CLR 27/M06 A3004 RMK AO2 SLP139 T02721056
                 PNO $ =
2017-10-18 12:53 METAR KGLD 181853Z AUTO 36009G17KT 10SM 26/M07 A3005 RMK AO2 PK WND 35026/1754
                 SLP143 T02611072 PNO $ =
2017-10-18 11:53 METAR KGLD 181753Z AUTO 35017G26KT 10SM 26/M06 A3007 RMK AO2 PK WND 36028/1714
                 RAB14E24 SLP144 6//// T02611061 10267 20083 51008 PWINO PNO $ =
2017-10-18 10:53 METAR KGLD 181653Z AUTO CLR 26/M06 A3007 RMK AO2 SLP145 T02561061 PNO $ =
2017-10-18 09:53 METAR KGLD 181553Z AUTO 31008KT 10SM CLR 20/02 A3005 RMK AO2 SLP149 T02000017 =
2017-10-18 08:53 METAR KGLD 181453Z AUTO 28007KT 10SM CLR 14/02 A3004 RMK AO2 SLP154 T01390022
                 53022 =
2017-10-18 07:53 METAR KGLD 181353Z AUTO 29007KT 10SM CLR 11/01 A3002 RMK AO2 SLP150 T01060011 =
2017-10-18 06:53 METAR KGLD 181253Z AUTO 26009KT 10SM CLR 11/00 A2998 RMK AO2 SLP133 T01110000 =
2017-10-18 05:53 METAR KGLD 181153Z AUTO 25009KT 10SM CLR 11/01 A2997 RMK AO2 SLP129 T01060006
                 10144 20094 55002 =

Support USWX by starting your Amazon purchase here.